Hauptseite
METAR-TAF:

METAR-TAF

Flughäfen :

Vršac, Serbien

Breite: 45-09N, Länge: 021-19E, Höhe: 83 m

Beobachtung

Neuester Wetterbericht von vor 13 Minuten, um 17:30 UTC
Wind 3 kt aus Nordost
Temperatur 28°C
Luftfeuchtigkeit 45%
Luftdruck 1016 hPa
Sichtweite 10 km oder mehr
keine Wolken unter 1500 m und keine Kumulonimbus oder Gewitterwolken

METAR: LYVR 181730Z 05003KT CAVOK 28/15 Q1016 NOSIG

Zeit: 19:43 (17:43 UTC)

Prognose

Neuester Wetterbericht von vor 43 Minuten, um 17:00 UTC
Gültige Prognose vom 18 um 18 UTC bis 19 um 18 UTC
Wind 5 kt aus Nordost
Sichtweite 10 km oder mehr
keine Wolken unter 1500 m und keine Kumulonimbus oder Gewitterwolken

TAF: LYVR 181700Z 1818/1918 04005KT CAVOK TX33/1913Z TN15/1903Z

Wetterbeobachtungen und Prognosen von mehr als 4000 Flughäfen (METAR und TAF Bericht).

Die verfügbaren Stationen werden durch gelbe und rote Markierungen auf der Karte dargestellt.

Führen Sie die Maus auf sie, um den Namen der Station zu sehen.

Darauf klicken, um die Beobachtung von Wetterbeobachtungen und Prognosen zu sehen.

Um die Karte zu ändern : klicken Sie auf den grünen Tasten mit einem schwarzen Kreuz Zum Vergrößern, auf den grünen Button mit einem Gedankenstrich zu verkleinern, oder auf die grünen Pfeile für benachbarte Karten.


METAR-TAF: